createdAt,value
2022-08-26T00:00:28.197Z,95.95
2022-08-26T00:01:29.885Z,95.85
2022-08-26T00:02:28.185Z,96.05
2022-08-26T00:03:28.171Z,95.75
2022-08-26T00:04:28.150Z,95.95
2022-08-26T00:05:28.100Z,96.66
2022-08-26T00:06:28.102Z,96.45
2022-08-26T00:07:28.100Z,96.36
2022-08-26T00:08:28.133Z,96.05
2022-08-26T00:09:28.053Z,95.75
2022-08-26T00:10:28.059Z,95.95
2022-08-26T00:11:28.054Z,95.70
2022-08-26T00:12:35.922Z,96.30
2022-08-26T00:13:29.033Z,96.40
2022-08-26T00:14:31.038Z,96.50
2022-08-26T00:15:27.988Z,96.30
2022-08-26T00:16:28.149Z,96.60
2022-08-26T00:17:27.997Z,96.25
2022-08-26T00:18:27.968Z,96.56
2022-08-26T00:19:27.977Z,96.50
2022-08-26T00:20:27.932Z,96.60
2022-08-26T00:21:27.967Z,96.56
2022-08-26T00:22:27.943Z,96.36
2022-08-26T00:23:28.926Z,96.45
2022-08-26T00:24:27.923Z,96.25
2022-08-26T00:25:27.873Z,96.20
2022-08-26T00:26:28.525Z,96.10
2022-08-26T00:27:27.872Z,96.10
2022-08-26T00:28:27.839Z,96.05
2022-08-26T00:29:27.828Z,96.30
2022-08-26T00:30:27.842Z,96.30
2022-08-26T00:31:27.863Z,96.60
2022-08-26T00:32:27.812Z,96.80
2022-08-26T00:33:27.795Z,96.86
2022-08-26T00:34:27.787Z,96.45
2022-08-26T00:35:27.885Z,96.76
2022-08-26T00:36:29.679Z,97.11
2022-08-26T00:37:27.736Z,96.56
2022-08-26T00:38:27.725Z,96.76
2022-08-26T00:39:27.724Z,97.06
2022-08-26T00:40:27.857Z,96.76
2022-08-26T00:41:27.694Z,97.06
2022-08-26T00:42:27.724Z,96.86
2022-08-26T00:43:27.663Z,97.11
2022-08-26T00:44:27.670Z,96.86
2022-08-26T00:45:27.697Z,96.76
2022-08-26T00:46:27.639Z,96.76
2022-08-26T00:47:27.625Z,96.56
2022-08-26T00:48:27.632Z,96.36
2022-08-26T00:49:27.601Z,96.86
2022-08-26T00:50:27.645Z,96.70
2022-08-26T00:51:29.789Z,96.86
2022-08-26T00:52:27.580Z,96.91
2022-08-26T00:53:27.929Z,96.96
2022-08-26T00:54:27.590Z,96.96
2022-08-26T00:55:27.600Z,96.80
2022-08-26T00:56:28.547Z,96.70
2022-08-26T00:57:27.510Z,97.06
2022-08-26T00:58:29.248Z,96.80
2022-08-26T00:59:27.483Z,96.91
2022-08-26T01:00:27.487Z,96.70
2022-08-26T01:01:27.497Z,96.70
2022-08-26T01:02:27.478Z,96.66
2022-08-26T01:03:27.457Z,96.76
2022-08-26T01:04:27.438Z,96.76
2022-08-26T01:05:27.420Z,96.91
2022-08-26T01:06:27.453Z,96.96
2022-08-26T01:07:31.261Z,96.80
2022-08-26T01:08:27.487Z,96.91
2022-08-26T01:09:27.383Z,96.91
2022-08-26T01:10:27.387Z,96.50
2022-08-26T01:11:27.356Z,96.91
2022-08-26T01:12:27.340Z,96.70
2022-08-26T01:13:27.325Z,96.70
2022-08-26T01:14:27.332Z,96.80
2022-08-26T01:15:27.328Z,96.70
2022-08-26T01:16:28.327Z,97.11
2022-08-26T01:17:27.282Z,96.91
2022-08-26T01:18:27.279Z,97.11
2022-08-26T01:19:27.255Z,97.51
2022-08-26T01:20:27.277Z,97.51
2022-08-26T01:21:27.230Z,97.51
2022-08-26T01:22:28.622Z,97.51
2022-08-26T01:23:27.230Z,97.31
2022-08-26T01:24:27.263Z,97.51
2022-08-26T01:25:27.185Z,97.51
2022-08-26T01:26:27.210Z,97.31
2022-08-26T01:27:27.170Z,96.91
2022-08-26T01:28:28.192Z,96.70
2022-08-26T01:29:27.241Z,96.70
2022-08-26T01:30:27.134Z,96.91
2022-08-26T01:31:27.560Z,97.11
2022-08-26T01:32:27.136Z,97.31
2022-08-26T01:33:27.109Z,97.41
2022-08-26T01:34:27.089Z,97.61
2022-08-26T01:35:27.098Z,97.41
2022-08-26T01:36:27.077Z,97.31
2022-08-26T01:37:27.076Z,97.21
2022-08-26T01:38:27.037Z,97.31
2022-08-26T01:39:27.047Z,97.51
2022-08-26T01:40:27.063Z,97.41
2022-08-26T01:41:27.432Z,97.56
2022-08-26T01:42:26.998Z,97.41
2022-08-26T01:43:26.987Z,97.51
2022-08-26T01:44:27.011Z,97.51
2022-08-26T01:45:27.017Z,97.21
2022-08-26T01:46:26.961Z,97.31
2022-08-26T01:47:26.977Z,97.11
2022-08-26T01:48:26.928Z,97.41
2022-08-26T01:49:26.914Z,97.96
2022-08-26T01:50:28.215Z,97.66
2022-08-26T01:51:26.891Z,97.76
2022-08-26T01:52:28.035Z,98.22
2022-08-26T01:53:26.871Z,97.81
2022-08-26T01:54:26.869Z,98.32
2022-08-26T01:55:32.350Z,97.96
2022-08-26T01:56:33.090Z,97.61
2022-08-26T01:57:27.845Z,97.41
2022-08-26T01:58:26.812Z,97.56
2022-08-26T01:59:26.798Z,97.66
2022-08-26T02:00:27.229Z,97.25
2022-08-26T02:01:28.966Z,97.56
2022-08-26T02:02:26.780Z,97.45
2022-08-26T02:03:26.767Z,97.16
2022-08-26T02:04:26.818Z,97.25
2022-08-26T02:05:26.756Z,97.36
2022-08-26T02:06:26.769Z,97.00
2022-08-26T02:07:27.089Z,97.16
2022-08-26T02:08:26.704Z,97.16
2022-08-26T02:09:26.816Z,97.20
2022-08-26T02:10:26.681Z,97.20
2022-08-26T02:11:26.677Z,97.16
2022-08-26T02:12:26.686Z,97.60
2022-08-26T02:13:26.653Z,97.50
2022-08-26T02:14:26.733Z,97.40
2022-08-26T02:15:26.625Z,97.40
2022-08-26T02:16:26.703Z,97.40
2022-08-26T02:17:26.633Z,97.40
2022-08-26T02:18:26.585Z,97.40
2022-08-26T02:19:26.595Z,97.40
2022-08-26T02:20:26.613Z,97.50
2022-08-26T02:21:26.555Z,98.41
2022-08-26T02:22:26.550Z,98.41
2022-08-26T02:23:26.534Z,98.01
2022-08-26T02:24:27.432Z,98.21
2022-08-26T02:25:26.533Z,98.11
2022-08-26T02:26:27.020Z,97.91
2022-08-26T02:27:27.516Z,98.41
2022-08-26T02:28:26.600Z,97.91
2022-08-26T02:29:26.460Z,97.91
2022-08-26T02:30:26.444Z,98.41
2022-08-26T02:31:26.463Z,98.01
2022-08-26T02:32:26.425Z,97.91
2022-08-26T02:33:26.429Z,98.05
2022-08-26T02:34:26.399Z,98.01
2022-08-26T02:35:26.489Z,97.80
2022-08-26T02:36:28.467Z,97.45
2022-08-26T02:37:26.386Z,97.55
2022-08-26T02:38:26.379Z,97.55
2022-08-26T02:39:26.785Z,97.25
2022-08-26T02:40:26.439Z,97.55
2022-08-26T02:41:26.328Z,97.45
2022-08-26T02:42:26.311Z,97.45
2022-08-26T02:43:32.902Z,97.45
2022-08-26T02:44:27.310Z,97.55
2022-08-26T02:45:26.297Z,97.45
2022-08-26T02:46:27.864Z,97.55
2022-08-26T02:47:26.256Z,97.55
2022-08-26T02:48:26.258Z,97.25
2022-08-26T02:49:26.232Z,97.25
2022-08-26T02:50:26.238Z,97.45
2022-08-26T02:51:26.233Z,97.65
2022-08-26T02:52:26.216Z,97.55
2022-08-26T02:53:26.189Z,97.45
2022-08-26T02:54:26.199Z,97.75
2022-08-26T02:55:26.178Z,97.34
2022-08-26T02:56:26.170Z,97.34
2022-08-26T02:57:26.241Z,97.25
2022-08-26T02:58:26.145Z,97.55
2022-08-26T02:59:26.145Z,97.45
2022-08-26T03:00:26.171Z,97.55
2022-08-26T03:01:26.195Z,97.34
2022-08-26T03:02:26.180Z,97.14
2022-08-26T03:03:26.074Z,97.29
2022-08-26T03:04:26.137Z,97.29
2022-08-26T03:05:26.063Z,97.69
2022-08-26T03:06:26.041Z,97.60
2022-08-26T03:07:26.078Z,97.69
2022-08-26T03:08:26.018Z,97.69
2022-08-26T03:09:26.042Z,97.60
2022-08-26T03:10:26.069Z,97.49
2022-08-26T03:11:29.612Z,97.80
2022-08-26T03:12:26.992Z,97.60
2022-08-26T03:13:25.978Z,97.29
2022-08-26T03:14:25.981Z,97.29
2022-08-26T03:15:25.944Z,97.19
2022-08-26T03:16:26.085Z,97.49
2022-08-26T03:17:27.066Z,97.29
2022-08-26T03:18:25.908Z,97.29
2022-08-26T03:19:25.885Z,97.39
2022-08-26T03:20:25.875Z,97.60
2022-08-26T03:21:25.866Z,97.39
2022-08-26T03:22:25.897Z,97.49
2022-08-26T03:23:25.845Z,97.64
2022-08-26T03:24:25.836Z,97.49
2022-08-26T03:25:25.826Z,97.60
2022-08-26T03:26:25.817Z,97.69
2022-08-26T03:27:25.822Z,97.80
2022-08-26T03:28:27.215Z,97.60
2022-08-26T03:29:25.773Z,97.85
2022-08-26T03:30:25.774Z,98.10
2022-08-26T03:31:25.790Z,97.54
2022-08-26T03:32:27.077Z,97.34
2022-08-26T03:33:25.770Z,97.60
2022-08-26T03:34:25.732Z,97.54
2022-08-26T03:35:25.736Z,97.54
2022-08-26T03:36:25.712Z,97.64
2022-08-26T03:37:25.683Z,97.44
2022-08-26T03:38:25.692Z,97.64
2022-08-26T03:39:25.684Z,97.64
2022-08-26T03:40:25.742Z,98.55
2022-08-26T03:41:25.658Z,98.14
2022-08-26T03:42:25.760Z,98.14
2022-08-26T03:43:25.748Z,98.05
2022-08-26T03:44:25.606Z,98.35
2022-08-26T03:45:25.600Z,98.25
2022-08-26T03:46:25.613Z,98.05
2022-08-26T03:47:25.587Z,98.00
2022-08-26T03:48:25.570Z,98.61
2022-08-26T03:49:25.554Z,98.14
2022-08-26T03:50:25.539Z,97.85
2022-08-26T03:51:25.525Z,98.05
2022-08-26T03:52:25.559Z,98.55
2022-08-26T03:53:25.505Z,98.05
2022-08-26T03:54:25.494Z,98.55
2022-08-26T03:55:25.476Z,97.74
2022-08-26T03:56:25.469Z,98.55
2022-08-26T03:57:25.463Z,98.55
2022-08-26T03:58:25.586Z,98.60
2022-08-26T03:59:25.437Z,98.45
2022-08-26T04:00:25.439Z,98.39
2022-08-26T04:01:25.550Z,97.99
2022-08-26T04:02:25.445Z,98.05
2022-08-26T04:03:25.468Z,98.14
2022-08-26T04:04:27.137Z,98.25
2022-08-26T04:05:25.371Z,98.80
2022-08-26T04:06:25.357Z,98.65
2022-08-26T04:07:25.350Z,98.45
2022-08-26T04:08:25.347Z,98.45
2022-08-26T04:09:25.334Z,98.25
2022-08-26T04:10:28.795Z,98.14
2022-08-26T04:11:25.608Z,98.96
2022-08-26T04:12:25.286Z,98.75
2022-08-26T04:13:25.306Z,98.75
2022-08-26T04:14:25.273Z,98.45
2022-08-26T04:15:25.275Z,98.25
2022-08-26T04:16:25.316Z,98.35
2022-08-26T04:17:25.234Z,98.75
2022-08-26T04:18:25.225Z,98.35
2022-08-26T04:19:26.224Z,98.45
2022-08-26T04:20:25.251Z,98.65
2022-08-26T04:21:25.220Z,98.85
2022-08-26T04:22:25.218Z,98.45
2022-08-26T04:23:25.180Z,98.75
2022-08-26T04:24:27.894Z,98.55
2022-08-26T04:25:25.144Z,98.55
2022-08-26T04:26:25.128Z,98.35
2022-08-26T04:27:25.148Z,98.75
2022-08-26T04:28:25.107Z,98.14
2022-08-26T04:29:25.112Z,98.25
2022-08-26T04:30:25.107Z,98.35
2022-08-26T04:31:25.097Z,97.94
2022-08-26T04:32:25.084Z,98.14
2022-08-26T04:33:32.245Z,98.75
2022-08-26T04:34:27.224Z,98.35
2022-08-26T04:35:26.137Z,98.96
2022-08-26T04:36:25.019Z,98.45
2022-08-26T04:37:25.048Z,98.75
2022-08-26T04:38:25.000Z,98.65
2022-08-26T04:39:25.307Z,98.75
2022-08-26T04:40:25.856Z,98.75
2022-08-26T04:41:24.985Z,98.55
2022-08-26T04:42:26.151Z,98.85
2022-08-26T04:43:24.973Z,98.65
2022-08-26T04:44:24.976Z,98.91
2022-08-26T04:45:24.914Z,98.85
2022-08-26T04:46:24.977Z,98.75
2022-08-26T04:47:27.146Z,98.85
2022-08-26T04:48:25.900Z,98.55
2022-08-26T04:49:25.969Z,98.85
2022-08-26T04:50:24.853Z,98.75
2022-08-26T04:51:24.847Z,98.55
2022-08-26T04:52:24.841Z,98.50
2022-08-26T04:53:24.857Z,98.81
2022-08-26T04:54:25.111Z,98.91
2022-08-26T04:55:25.304Z,98.50
2022-08-26T04:56:25.789Z,98.81
2022-08-26T04:57:24.778Z,98.50
2022-08-26T04:58:24.794Z,98.50
2022-08-26T04:59:24.757Z,98.61
2022-08-26T05:00:24.773Z,98.61
2022-08-26T05:01:24.764Z,98.61
2022-08-26T05:02:24.730Z,98.40
2022-08-26T05:03:24.709Z,98.81
2022-08-26T05:04:24.819Z,99.01
2022-08-26T05:05:24.692Z,98.81
2022-08-26T05:06:24.686Z,99.27
2022-08-26T05:07:24.667Z,99.57
2022-08-26T05:08:24.657Z,99.07
2022-08-26T05:09:24.709Z,99.37
2022-08-26T05:10:24.628Z,98.96
2022-08-26T05:11:24.618Z,98.96
2022-08-26T05:12:24.630Z,99.47
2022-08-26T05:13:24.602Z,99.27
2022-08-26T05:14:24.603Z,99.32
2022-08-26T05:15:24.602Z,99.22
2022-08-26T05:16:24.671Z,99.42
2022-08-26T05:17:24.562Z,99.32
2022-08-26T05:18:24.575Z,99.32
2022-08-26T05:19:24.569Z,99.52
2022-08-26T05:20:26.092Z,99.99
2022-08-26T05:21:24.507Z,99.99
2022-08-26T05:22:24.495Z,99.27
2022-08-26T05:23:24.498Z,99.78
2022-08-26T05:24:24.468Z,99.88
2022-08-26T05:25:24.487Z,99.58
2022-08-26T05:26:24.452Z,99.88
2022-08-26T05:27:24.471Z,99.78
2022-08-26T05:28:24.429Z,99.93
2022-08-26T05:29:24.474Z,99.58
2022-08-26T05:30:24.438Z,99.13
2022-08-26T05:31:24.485Z,99.99
2022-08-26T05:32:24.443Z,99.33
2022-08-26T05:33:24.374Z,99.73
2022-08-26T05:34:25.807Z,99.84
2022-08-26T05:35:25.404Z,99.68
2022-08-26T05:36:24.368Z,99.43
2022-08-26T05:37:24.348Z,99.22
2022-08-26T05:38:24.322Z,99.93
2022-08-26T05:39:24.326Z,99.53
2022-08-26T05:40:24.330Z,99.48
2022-08-26T05:41:24.342Z,99.68
2022-08-26T05:42:24.264Z,99.48
2022-08-26T05:43:24.290Z,99.68
2022-08-26T05:44:24.249Z,99.68
2022-08-26T05:45:24.255Z,99.64
2022-08-26T05:46:24.270Z,99.84
2022-08-26T05:47:24.251Z,99.99
2022-08-26T05:48:24.554Z,99.99
2022-08-26T05:49:26.387Z,99.99
2022-08-26T05:50:24.191Z,99.99
2022-08-26T05:51:26.076Z,99.99
2022-08-26T05:52:24.649Z,99.99
2022-08-26T05:53:26.130Z,99.99
2022-08-26T05:54:24.154Z,99.99
2022-08-26T05:55:24.131Z,99.99
2022-08-26T05:56:24.130Z,99.99
2022-08-26T05:57:24.121Z,99.99
2022-08-26T05:58:24.122Z,99.99
2022-08-26T05:59:24.879Z,99.99
2022-08-26T06:00:24.110Z,99.99
2022-08-26T06:01:24.863Z,99.74
2022-08-26T06:02:24.130Z,99.74
2022-08-26T06:03:24.060Z,99.99
2022-08-26T06:04:26.787Z,99.99
2022-08-26T06:05:24.061Z,99.99
2022-08-26T06:06:28.032Z,99.99
2022-08-26T06:07:25.058Z,99.99
2022-08-26T06:08:24.001Z,99.99
2022-08-26T06:09:23.989Z,99.99
2022-08-26T06:10:32.852Z,99.99
2022-08-26T06:11:24.986Z,99.99
2022-08-26T06:12:23.969Z,99.99
2022-08-26T06:13:23.966Z,99.99
2022-08-26T06:14:23.926Z,99.99
2022-08-26T06:15:23.941Z,99.99
2022-08-26T06:16:24.003Z,99.57
2022-08-26T06:17:23.895Z,99.77
2022-08-26T06:18:23.925Z,99.83
2022-08-26T06:19:23.904Z,99.73
2022-08-26T06:20:23.871Z,98.59
2022-08-26T06:21:23.866Z,97.30
2022-08-26T06:22:23.916Z,96.76
2022-08-26T06:23:23.815Z,95.17
2022-08-26T06:24:27.039Z,93.69
2022-08-26T06:25:23.795Z,90.75
2022-08-26T06:26:23.824Z,90.91
2022-08-26T06:27:23.764Z,87.05
2022-08-26T06:28:23.744Z,85.97
2022-08-26T06:29:24.438Z,84.44
2022-08-26T06:30:23.771Z,82.62
2022-08-26T06:31:23.883Z,79.86
2022-08-26T06:32:23.716Z,78.38
2022-08-26T06:33:23.689Z,78.93
2022-08-26T06:34:23.689Z,78.75
2022-08-26T06:35:24.687Z,78.32
2022-08-26T06:36:23.683Z,74.82
2022-08-26T06:37:23.660Z,71.66
2022-08-26T06:38:23.752Z,71.37
2022-08-26T06:39:23.642Z,73.74
2022-08-26T06:40:23.696Z,74.59
2022-08-26T06:41:23.616Z,71.10
2022-08-26T06:42:34.395Z,72.84
2022-08-26T06:43:23.934Z,72.71
2022-08-26T06:44:24.314Z,71.33
2022-08-26T06:45:23.833Z,68.63
2022-08-26T06:46:23.622Z,69.35
2022-08-26T06:47:23.556Z,70.77
2022-08-26T06:48:23.524Z,70.24
2022-08-26T06:49:26.870Z,69.65
2022-08-26T06:51:43.906Z,70.11
2022-08-26T06:52:43.864Z,70.90
2022-08-26T06:53:43.860Z,69.52
2022-08-26T06:54:44.298Z,70.41
2022-08-26T06:55:43.843Z,69.71
2022-08-26T06:56:43.837Z,68.76
2022-08-26T06:57:43.857Z,70.44
2022-08-26T06:58:43.836Z,69.72
2022-08-26T06:59:43.858Z,71.57
2022-08-26T07:00:47.164Z,73.45
2022-08-26T07:01:43.994Z,73.71
2022-08-26T07:02:46.177Z,72.59
2022-08-26T07:03:43.827Z,71.76
2022-08-26T07:04:43.760Z,71.86
2022-08-26T07:05:43.743Z,70.48
2022-08-26T07:06:43.829Z,70.15
2022-08-26T07:07:43.798Z,70.38
2022-08-26T07:08:43.937Z,71.17
2022-08-26T07:09:44.010Z,69.29
2022-08-26T07:10:43.861Z,70.54
2022-08-26T07:11:43.685Z,72.66
2022-08-26T07:12:43.662Z,73.45
2022-08-26T07:13:43.649Z,73.02
2022-08-26T07:14:43.751Z,71.73
2022-08-26T07:15:43.763Z,71.04
2022-08-26T07:16:43.604Z,70.94
2022-08-26T07:17:43.613Z,71.86
2022-08-26T07:18:44.817Z,73.71
2022-08-26T07:19:43.588Z,73.97
2022-08-26T07:20:43.588Z,71.86
2022-08-26T07:21:43.550Z,70.97
2022-08-26T07:22:43.537Z,70.31
2022-08-26T07:23:43.549Z,72.82
2022-08-26T07:24:43.898Z,73.28
2022-08-26T07:25:43.524Z,71.04
2022-08-26T07:26:43.497Z,73.28
2022-08-26T07:27:43.497Z,73.24
2022-08-26T07:28:43.469Z,71.53
2022-08-26T07:29:43.489Z,72.32
2022-08-26T07:30:43.655Z,70.90
2022-08-26T07:31:43.488Z,70.97
2022-08-26T07:32:43.437Z,69.65
2022-08-26T07:33:43.412Z,68.66
2022-08-26T07:34:43.424Z,69.42
2022-08-26T07:35:43.393Z,68.40
2022-08-26T07:36:43.383Z,68.20
2022-08-26T07:37:43.368Z,66.72
2022-08-26T07:40:07.423Z,67.74
2022-08-26T07:41:07.352Z,68.43
2022-08-26T07:42:08.120Z,68.53
2022-08-26T07:43:07.505Z,69.29
2022-08-26T07:44:07.255Z,69.38
2022-08-26T07:45:07.263Z,65.34
2022-08-26T07:46:07.256Z,68.60
2022-08-26T07:47:24.103Z,67.48
2022-08-26T07:48:08.282Z,67.87
2022-08-26T07:49:07.297Z,65.01
2022-08-26T07:50:07.229Z,65.11
2022-08-26T07:51:07.185Z,65.41
2022-08-26T07:52:07.214Z,65.51
2022-08-26T07:53:07.417Z,66.69
2022-08-26T07:54:15.783Z,63.93
2022-08-26T07:55:07.162Z,64.92
2022-08-26T07:56:07.132Z,66.49
2022-08-26T07:57:08.345Z,65.70
2022-08-26T07:58:07.105Z,66.49
2022-08-26T07:59:13.897Z,68.17
2022-08-26T08:00:08.103Z,66.56
2022-08-26T08:01:07.136Z,63.90
2022-08-26T08:02:07.058Z,64.59
2022-08-26T08:03:07.301Z,65.58
2022-08-26T08:04:07.059Z,65.08
2022-08-26T08:05:07.084Z,64.26
2022-08-26T08:06:07.033Z,62.59
2022-08-26T08:07:07.548Z,63.18
2022-08-26T08:08:27.246Z,62.76
2022-08-26T08:09:07.986Z,62.59
2022-08-26T08:10:09.882Z,62.59
2022-08-26T08:11:06.960Z,62.72
2022-08-26T08:12:06.955Z,61.54
2022-08-26T08:13:07.061Z,62.26
2022-08-26T08:14:08.483Z,63.44
2022-08-26T08:15:06.930Z,62.46
2022-08-26T08:16:06.902Z,62.29
2022-08-26T08:17:08.065Z,62.91
2022-08-26T08:18:06.962Z,63.21
2022-08-26T08:19:07.867Z,64.59
2022-08-26T08:20:06.879Z,63.31
2022-08-26T08:21:21.432Z,63.21
2022-08-26T08:22:17.866Z,63.21
2022-08-26T08:23:07.820Z,60.64
2022-08-26T08:24:06.817Z,61.56
2022-08-26T08:25:08.267Z,62.15
2022-08-26T08:26:06.788Z,61.69
2022-08-26T08:27:06.780Z,62.55
2022-08-26T08:28:06.939Z,63.93
2022-08-26T08:29:06.761Z,63.34
2022-08-26T08:30:06.744Z,64.62
2022-08-26T08:31:06.799Z,62.84
2022-08-26T08:32:06.815Z,61.79
2022-08-26T08:33:06.737Z,61.79
2022-08-26T08:34:06.696Z,62.28
2022-08-26T08:35:10.921Z,62.48
2022-08-26T08:36:07.676Z,63.37
2022-08-26T08:37:10.063Z,62.97
2022-08-26T08:38:06.763Z,63.27
2022-08-26T08:39:06.668Z,64.55
2022-08-26T08:40:06.716Z,64.25
2022-08-26T08:41:06.627Z,63.69
2022-08-26T08:42:06.634Z,65.08
2022-08-26T08:43:06.805Z,65.20
2022-08-26T08:44:06.637Z,64.81
2022-08-26T08:45:06.590Z,65.11
2022-08-26T08:46:06.617Z,65.50
2022-08-26T08:47:06.571Z,66.59
2022-08-26T08:48:06.641Z,65.70
2022-08-26T08:49:06.570Z,66.13
2022-08-26T08:50:06.529Z,65.66
2022-08-26T08:51:06.556Z,66.65
2022-08-26T08:52:06.528Z,66.95
2022-08-26T08:53:09.015Z,66.65
2022-08-26T08:54:06.484Z,66.95
2022-08-26T08:55:11.006Z,66.95
2022-08-26T08:56:06.483Z,65.66
2022-08-26T08:57:06.450Z,66.06
2022-08-26T08:58:06.628Z,65.77
2022-08-26T08:59:06.433Z,65.77
2022-08-26T09:00:06.425Z,66.29
2022-08-26T09:01:06.471Z,65.89
2022-08-26T09:02:13.588Z,66.69
2022-08-26T09:03:06.398Z,67.28
2022-08-26T09:04:06.393Z,67.28
2022-08-26T09:05:06.381Z,69.56
2022-08-26T09:06:06.352Z,69.75
2022-08-26T09:07:06.343Z,68.57
2022-08-26T09:08:06.602Z,67.87
2022-08-26T09:09:06.323Z,68.37
2022-08-26T09:10:06.309Z,68.27
2022-08-26T09:11:06.354Z,67.94
2022-08-26T09:12:06.292Z,67.21
2022-08-26T09:13:06.305Z,66.72
2022-08-26T09:14:06.289Z,67.28
2022-08-26T09:15:06.279Z,65.34
2022-08-26T09:16:06.254Z,66.62
2022-08-26T09:17:06.298Z,64.45
2022-08-26T09:18:06.302Z,65.14
2022-08-26T09:19:06.228Z,65.37
2022-08-26T09:20:06.205Z,64.78
2022-08-26T09:21:06.217Z,65.37
2022-08-26T09:22:09.325Z,65.47
2022-08-26T09:23:07.379Z,65.40
2022-08-26T09:24:14.145Z,65.73
2022-08-26T09:25:06.297Z,66.82
2022-08-26T09:26:06.269Z,65.56
2022-08-26T09:27:06.294Z,66.95
2022-08-26T09:28:06.309Z,67.35
2022-08-26T09:29:06.225Z,68.43
2022-08-26T09:30:06.129Z,68.86
2022-08-26T09:31:10.660Z,67.97
2022-08-26T09:32:07.080Z,69.06
2022-08-26T09:33:10.070Z,69.98
2022-08-26T09:34:06.196Z,70.65
2022-08-26T09:35:06.311Z,72.43
2022-08-26T09:36:06.058Z,71.87
2022-08-26T09:37:06.057Z,71.77
2022-08-26T09:38:07.008Z,71.47
2022-08-26T09:39:06.017Z,71.08
2022-08-26T09:40:06.041Z,71.28
2022-08-26T09:41:06.024Z,71.41
2022-08-26T09:42:06.532Z,72.30
2022-08-26T09:43:05.990Z,71.81
2022-08-26T09:44:05.963Z,72.40
2022-08-26T09:45:05.972Z,72.30
2022-08-26T09:46:05.969Z,72.50
2022-08-26T09:47:05.953Z,72.30
2022-08-26T09:48:05.996Z,73.33
2022-08-26T09:49:05.915Z,73.29
2022-08-26T09:50:09.668Z,73.39
2022-08-26T09:51:05.888Z,73.93
2022-08-26T09:52:05.923Z,73.29
2022-08-26T09:53:09.969Z,73.79
2022-08-26T09:54:08.080Z,74.19
2022-08-26T09:55:05.848Z,74.78
2022-08-26T09:56:05.870Z,73.99
2022-08-26T09:57:05.829Z,73.39
2022-08-26T09:58:08.826Z,73.49
2022-08-26T09:59:06.453Z,73.69
2022-08-26T10:00:05.790Z,74.98
2022-08-26T10:01:05.888Z,74.88
2022-08-26T10:02:05.804Z,74.38
2022-08-26T10:03:06.830Z,73.89
2022-08-26T10:04:06.900Z,74.02
2022-08-26T10:05:09.917Z,75.21
2022-08-26T10:06:06.557Z,75.71
2022-08-26T10:07:06.826Z,74.82
2022-08-26T10:08:07.999Z,75.61
2022-08-26T10:09:08.827Z,76.40
2022-08-26T10:10:05.694Z,77.44
2022-08-26T10:11:05.682Z,77.83
2022-08-26T10:12:05.647Z,77.83
2022-08-26T10:13:05.821Z,78.82
2022-08-26T10:14:05.649Z,78.72
2022-08-26T10:15:05.655Z,78.86
2022-08-26T10:16:05.744Z,79.43
2022-08-26T10:17:07.001Z,79.87
2022-08-26T10:18:05.678Z,80.77
2022-08-26T10:19:05.649Z,80.96
2022-08-26T10:20:05.561Z,81.46
2022-08-26T10:21:07.334Z,81.20
2022-08-26T10:22:05.541Z,81.74
2022-08-26T10:23:05.585Z,82.28
2022-08-26T10:24:05.552Z,83.37
2022-08-26T10:25:05.572Z,83.45
2022-08-26T10:26:05.493Z,84.93
2022-08-26T10:27:05.490Z,85.83
2022-08-26T10:28:05.590Z,86.72
2022-08-26T10:29:05.490Z,86.93
2022-08-26T10:30:05.543Z,87.12
2022-08-26T10:31:05.603Z,85.67
2022-08-26T10:32:05.615Z,85.27
2022-08-26T10:33:05.453Z,84.67
2022-08-26T10:34:05.411Z,85.51
2022-08-26T10:35:05.448Z,85.51
2022-08-26T10:36:05.413Z,86.31
2022-08-26T10:37:14.700Z,86.41
2022-08-26T10:38:06.393Z,86.61
2022-08-26T10:39:05.356Z,87.11
2022-08-26T10:40:06.102Z,86.71
2022-08-26T10:41:10.550Z,87.15
2022-08-26T10:42:06.321Z,87.25
2022-08-26T10:43:10.437Z,87.05
2022-08-26T10:44:06.318Z,86.75
2022-08-26T10:45:05.309Z,86.75
2022-08-26T10:46:05.338Z,87.49
2022-08-26T10:47:05.299Z,87.59
2022-08-26T10:48:05.405Z,88.19
2022-08-26T10:49:20.273Z,88.13
2022-08-26T10:50:06.605Z,88.53
2022-08-26T10:51:06.090Z,88.53
2022-08-26T10:52:05.241Z,89.23
2022-08-26T10:53:09.327Z,88.83
2022-08-26T10:54:05.619Z,88.83
2022-08-26T10:55:05.199Z,88.93
2022-08-26T10:56:05.254Z,89.73
2022-08-26T10:57:05.215Z,89.53
2022-08-26T10:58:08.873Z,89.64
2022-08-26T10:59:06.153Z,89.64
2022-08-26T11:00:07.334Z,89.14
2022-08-26T11:01:10.186Z,89.03
2022-08-26T11:02:05.105Z,89.23
2022-08-26T11:03:05.249Z,88.64
2022-08-26T11:04:05.144Z,89.03
2022-08-26T11:05:05.067Z,88.53
2022-08-26T11:06:05.171Z,88.23
2022-08-26T11:07:05.086Z,88.64
2022-08-26T11:08:05.042Z,88.28
2022-08-26T11:09:05.088Z,87.23
2022-08-26T11:10:05.072Z,88.07
2022-08-26T11:11:05.009Z,87.77
2022-08-26T11:12:10.036Z,87.87
2022-08-26T11:13:06.083Z,88.57
2022-08-26T11:14:04.976Z,88.28
2022-08-26T11:15:05.221Z,88.18
2022-08-26T11:16:05.404Z,88.18
2022-08-26T11:17:05.003Z,87.48
2022-08-26T11:18:04.939Z,87.82
2022-08-26T11:19:04.938Z,87.71
2022-08-26T11:20:09.215Z,88.48
2022-08-26T11:21:05.912Z,87.48
2022-08-26T11:22:04.890Z,88.28
2022-08-26T11:23:04.875Z,88.57
2022-08-26T11:24:04.900Z,88.87
2022-08-26T11:25:04.892Z,88.68
2022-08-26T11:26:04.900Z,87.87
2022-08-26T11:27:04.853Z,86.98
2022-08-26T11:28:05.017Z,87.18
2022-08-26T11:29:04.817Z,87.37
2022-08-26T11:30:05.913Z,87.68
2022-08-26T11:31:04.840Z,88.78
2022-08-26T11:32:04.973Z,88.57
2022-08-26T11:33:04.886Z,87.98
2022-08-26T11:34:04.779Z,86.83
2022-08-26T11:35:04.768Z,86.93
2022-08-26T11:36:11.967Z,88.03
2022-08-26T11:37:05.835Z,87.53
2022-08-26T11:38:04.726Z,87.13
2022-08-26T11:39:04.823Z,85.77
2022-08-26T11:40:04.764Z,87.07
2022-08-26T11:41:04.771Z,87.77
2022-08-26T11:42:04.814Z,88.03
2022-08-26T11:43:04.746Z,88.33
2022-08-26T11:44:04.882Z,88.13
2022-08-26T11:45:05.712Z,88.49
2022-08-26T11:46:04.677Z,85.93
2022-08-26T11:47:04.673Z,86.43
2022-08-26T11:48:04.597Z,87.99
2022-08-26T11:49:04.621Z,87.79
2022-08-26T11:50:04.596Z,88.05
2022-08-26T11:51:04.612Z,88.35
2022-08-26T11:52:04.648Z,88.55
2022-08-26T11:53:04.617Z,88.71
2022-08-26T11:54:04.588Z,87.81
2022-08-26T11:55:04.580Z,87.81
2022-08-26T11:56:04.672Z,87.07
2022-08-26T11:57:18.827Z,87.37
2022-08-26T11:58:07.480Z,86.66
2022-08-26T11:59:05.112Z,86.36
2022-08-26T12:00:05.744Z,86.66
2022-08-26T12:01:04.518Z,87.07
2022-08-26T12:02:05.555Z,85.53
2022-08-26T12:03:04.632Z,84.77
2022-08-26T12:04:04.598Z,84.47
2022-08-26T12:05:04.481Z,84.97
2022-08-26T12:06:04.452Z,83.77
2022-08-26T12:07:04.544Z,83.47
2022-08-26T12:08:04.522Z,85.17
2022-08-26T12:13:29.151Z,86.07
2022-08-26T12:14:29.937Z,86.17
2022-08-26T12:15:29.781Z,85.67
2022-08-26T12:16:28.775Z,86.47
2022-08-26T12:17:29.320Z,86.66
2022-08-26T12:18:30.009Z,87.07
2022-08-26T12:20:55.584Z,86.52
2022-08-26T12:21:55.669Z,86.72
2022-08-26T12:22:55.806Z,86.93
2022-08-26T12:23:55.542Z,84.73
2022-08-26T12:24:55.417Z,85.42
2022-08-26T12:25:55.339Z,85.28
2022-08-26T12:26:55.357Z,84.29
2022-08-26T12:27:55.338Z,85.25
2022-08-26T12:28:55.351Z,84.65
2022-08-26T12:29:55.341Z,85.25
2022-08-26T12:30:55.279Z,85.30
2022-08-26T12:31:55.342Z,83.91
2022-08-26T12:32:58.877Z,82.92
2022-08-26T12:33:55.270Z,83.11
2022-08-26T12:34:55.325Z,83.01
2022-08-26T12:35:56.747Z,83.81
2022-08-26T12:36:55.272Z,81.72
2022-08-26T12:37:55.232Z,81.92
2022-08-26T12:38:58.108Z,80.72
2022-08-26T12:39:55.232Z,81.36
2022-08-26T12:40:55.202Z,80.26
2022-08-26T12:41:55.157Z,79.40
2022-08-26T12:42:55.145Z,80.50
2022-08-26T12:43:55.151Z,80.94
2022-08-26T12:44:55.122Z,81.00
2022-08-26T12:45:55.191Z,81.43
2022-08-26T12:46:55.119Z,80.98
2022-08-26T12:47:55.091Z,83.01
2022-08-26T12:48:55.113Z,81.81
2022-08-26T12:49:55.083Z,82.35
2022-08-26T12:50:55.060Z,83.65
2022-08-26T12:51:55.063Z,83.79
2022-08-26T12:52:55.066Z,85.29
2022-08-26T12:53:55.039Z,85.29
2022-08-26T12:54:56.985Z,85.69
2022-08-26T12:55:55.020Z,86.69
2022-08-26T12:56:54.991Z,87.13
2022-08-26T12:57:54.989Z,86.79
2022-08-26T12:58:54.990Z,87.59
2022-08-26T12:59:54.954Z,87.34
2022-08-26T13:00:55.088Z,86.69